Eastern Asia — 3FQP2 — position and weather

sailwx.info

Track history (hours):
 
Tides and Currents Weather Stations Pressure Air Temp Water Temp Dewpoint Dewpoint Depression Visibility Wind Speed Wind Dir Waves Ship Positions

Eastern Asia

Last reported at 2017-Apr-19 09:43 UTC. Time now 2017-Apr-24 11:30 UTC.
Position N 01°15' E 104°02'.

Length 175 m; draft 10 m.

Type: Cargo ship. MMSI: 355530000.

Date/timePositionNaut miles runAvg speedWind from/ knotsBaromVisibWave heightAir tempDewpointWater temp
2017-Apr-19 09:43N 01°15' E 104°02'310.2
2017-Apr-19 09:28N 01°15' E 103°60'4 8.4
2017-Apr-19 09:00N 01°15' E 103°56'2 4.9
2017-Apr-19 08:30N 01°16' E 103°54'0 0.1
2017-Apr-19 07:52N 01°16' E 103°54'0 0.0
2017-Apr-19 07:22N 01°16' E 103°54'0 0.0
2017-Apr-19 06:55N 01°16' E 103°54'0 0.0
2017-Apr-19 06:25N 01°16' E 103°54'0 0.1
2017-Apr-19 05:58N 01°16' E 103°54'0 0.0
2017-Apr-19 05:10N 01°16' E 103°54'0 0.0
2017-Apr-19 04:40N 01°16' E 103°54'0 0.0
2017-Apr-19 04:25N 01°16' E 103°54'0 0.0
2017-Apr-19 03:43N 01°16' E 103°54'0 0.2
2017-Apr-19 03:22N 01°16' E 103°54'0 0.0
2017-Apr-19 02:55N 01°16' E 103°54'0 0.0
2017-Apr-19 02:04N 01°16' E 103°54'0 0.0
2017-Apr-19 01:55N 01°16' E 103°54'0 0.1
2017-Apr-19 01:28N 01°16' E 103°54'0 1.1
2017-Apr-19 01:00N 01°16' E 103°54'3 5.9
2017-Apr-19 00:30N 01°13' E 103°54'2 3.3
2017-Apr-19 00:00N 01°12' E 103°53'3 5.9
2017-Apr-18 23:30N 01°10' E 103°50'3 5.4
2017-Apr-18 23:00N 01°09' E 103°48'3 6.0
2017-Apr-18 22:30N 01°07' E 103°45'3 5.6
2017-Apr-18 22:00N 01°05' E 103°43'4 8.0
2017-Apr-18 21:30N 01°03' E 103°40'5 9.7
2017-Apr-18 20:59N 01°05' E 103°35'5 9.8
2017-Apr-18 20:27N 01°08' E 103°31'4 9.7
2017-Apr-18 20:00N 01°10' E 103°27'5 9.7
2017-Apr-18 19:30N 01°13' E 103°23'67 9.6
2017-Apr-18 12:33N 01°48' E 102°27'111.6
2017-Apr-18 12:30N 01°48' E 102°26'  
Track history (hours):
 
Tides and Currents Weather Stations Pressure Air Temp Water Temp Dewpoint Dewpoint Depression Visibility Wind Speed Wind Dir Waves Ship Positions

Eastern Asia

Last reported at 2017-Apr-19 09:43 UTC. Time now 2017-Apr-24 11:30 UTC.
Position N 01°15' E 104°02'.

Length 175 m; draft 10 m.

Type: Cargo ship. MMSI: 355530000.

Date/timePositionNaut miles runAvg speedWind from/ knotsBaromVisibWave heightAir tempDewpointWater temp
2017-Apr-19 09:43N 01°15' E 104°02'310.2
2017-Apr-19 09:28N 01°15' E 103°60'4 8.4
2017-Apr-19 09:00N 01°15' E 103°56'2 4.9
2017-Apr-19 08:30N 01°16' E 103°54'0 0.1
2017-Apr-19 07:52N 01°16' E 103°54'0 0.0
2017-Apr-19 07:22N 01°16' E 103°54'0 0.0
2017-Apr-19 06:55N 01°16' E 103°54'0 0.0
2017-Apr-19 06:25N 01°16' E 103°54'0 0.1
2017-Apr-19 05:58N 01°16' E 103°54'0 0.0
2017-Apr-19 05:10N 01°16' E 103°54'0 0.0
2017-Apr-19 04:40N 01°16' E 103°54'0 0.0
2017-Apr-19 04:25N 01°16' E 103°54'0 0.0
2017-Apr-19 03:43N 01°16' E 103°54'0 0.2
2017-Apr-19 03:22N 01°16' E 103°54'0 0.0
2017-Apr-19 02:55N 01°16' E 103°54'0 0.0
2017-Apr-19 02:04N 01°16' E 103°54'0 0.0
2017-Apr-19 01:55N 01°16' E 103°54'0 0.1
2017-Apr-19 01:28N 01°16' E 103°54'0 1.1
2017-Apr-19 01:00N 01°16' E 103°54'3 5.9
2017-Apr-19 00:30N 01°13' E 103°54'2 3.3
2017-Apr-19 00:00N 01°12' E 103°53'3 5.9
2017-Apr-18 23:30N 01°10' E 103°50'3 5.4
2017-Apr-18 23:00N 01°09' E 103°48'3 6.0
2017-Apr-18 22:30N 01°07' E 103°45'3 5.6
2017-Apr-18 22:00N 01°05' E 103°43'4 8.0
2017-Apr-18 21:30N 01°03' E 103°40'5 9.7
2017-Apr-18 20:59N 01°05' E 103°35'5 9.8
2017-Apr-18 20:27N 01°08' E 103°31'4 9.7
2017-Apr-18 20:00N 01°10' E 103°27'5 9.7
2017-Apr-18 19:30N 01°13' E 103°23'67 9.6
2017-Apr-18 12:33N 01°48' E 102°27'111.6
2017-Apr-18 12:30N 01°48' E 102°26'  

Dump ship's entire track history